createdAt,value
2022-09-06T00:04:53.154Z,61.9
2022-09-06T00:09:53.193Z,62.1
2022-09-06T00:19:53.164Z,62.5
2022-09-06T00:24:53.162Z,63
2022-09-06T00:44:53.170Z,63.4
2022-09-06T00:54:53.154Z,62.3
2022-09-06T00:59:53.164Z,62.2
2022-09-06T01:04:53.175Z,63
2022-09-06T01:09:53.177Z,64.4
2022-09-06T01:19:53.175Z,65.4
2022-09-06T01:24:53.178Z,64.8
2022-09-06T01:34:53.187Z,66
2022-09-06T01:44:53.179Z,66.3
2022-09-06T01:59:53.177Z,65.6
2022-09-06T02:09:53.170Z,65.4
2022-09-06T02:14:53.185Z,65.8
2022-09-06T02:24:53.180Z,64.9
2022-09-06T02:29:53.188Z,64.8
2022-09-06T02:39:53.244Z,65.3
2022-09-06T02:44:53.471Z,65.9
2022-09-06T02:54:53.182Z,66.4
2022-09-06T02:59:53.188Z,66
2022-09-06T03:19:53.187Z,66.5
2022-09-06T03:29:53.184Z,65.4
2022-09-06T03:34:53.195Z,65.1
2022-09-06T03:44:53.185Z,65.2
2022-09-06T03:49:53.193Z,64.6
2022-09-06T03:59:53.194Z,65.1
2022-09-06T04:04:53.191Z,65
2022-09-06T04:09:53.186Z,64.9
2022-09-06T04:19:53.206Z,64.8
2022-09-06T04:39:53.316Z,67.1
2022-09-06T04:44:53.222Z,66.4
2022-09-06T04:54:53.214Z,66.7
2022-09-06T05:04:53.224Z,67
2022-09-06T05:14:53.214Z,67.7
2022-09-06T05:19:53.226Z,66.5
2022-09-06T05:29:53.221Z,67.7
2022-09-06T05:34:53.227Z,68.1
2022-09-06T05:54:53.244Z,68
2022-09-06T06:04:53.236Z,66.8
2022-09-06T06:14:53.224Z,67.2
2022-09-06T06:19:53.242Z,66.3
2022-09-06T06:29:53.223Z,64.9
2022-09-06T06:34:53.240Z,64.8
2022-09-06T06:44:53.242Z,65
2022-09-06T06:49:53.236Z,65.1
2022-09-06T06:54:53.248Z,64.9
2022-09-06T07:14:53.241Z,65.9
2022-09-06T07:20:22.275Z,65.7
2022-09-06T07:24:53.253Z,65.6
2022-09-06T07:34:53.253Z,66.4
2022-09-06T07:39:53.367Z,65.9
2022-09-06T07:59:53.264Z,67.1
2022-09-06T08:04:53.268Z,67.7
2022-09-06T08:09:53.270Z,67.5
2022-09-06T08:34:53.277Z,67.8
2022-09-06T08:49:53.282Z,68.2
2022-09-06T08:54:53.286Z,66.4
2022-09-06T09:04:53.295Z,67.4
2022-09-06T09:14:53.288Z,67.3
2022-09-06T09:24:53.288Z,67.2
2022-09-06T09:49:53.299Z,66.3
2022-09-06T09:54:53.296Z,67.5
2022-09-06T09:59:53.302Z,67.5
2022-09-06T10:04:53.304Z,66
2022-09-06T10:14:53.320Z,65.9
2022-09-06T10:19:53.306Z,65.8
2022-09-06T10:29:53.304Z,65.8
2022-09-06T10:34:53.314Z,66
2022-09-06T10:39:53.397Z,66.8
2022-09-06T10:49:53.326Z,66.6
2022-09-06T11:09:53.334Z,65.9
2022-09-06T11:14:53.321Z,67.2
2022-09-06T11:19:53.330Z,68
2022-09-06T11:24:53.334Z,66
2022-09-06T11:29:53.328Z,66
2022-09-06T11:44:53.324Z,67.4
2022-09-06T11:49:53.343Z,67.7
2022-09-06T11:59:53.329Z,66.6
2022-09-06T12:04:56.106Z,67.8
2022-09-06T12:24:53.345Z,67.5
2022-09-06T12:29:53.341Z,66.2
2022-09-06T12:44:53.360Z,65.9
2022-09-06T12:54:53.344Z,66.3
2022-09-06T12:59:53.357Z,66.3
2022-09-06T13:04:53.366Z,65.7
2022-09-06T13:14:53.368Z,66.8
2022-09-06T13:24:53.360Z,68.7
2022-09-06T13:44:53.391Z,67.4
2022-09-06T13:54:53.378Z,66.9
2022-09-06T13:59:53.395Z,67.3
2022-09-06T14:09:53.403Z,67.3
2022-09-06T14:19:53.405Z,66.7
2022-09-06T14:24:53.404Z,67.4
2022-09-06T14:34:53.400Z,67.4
2022-09-06T14:39:53.805Z,66.9
2022-09-06T14:44:53.416Z,68
2022-09-06T14:59:53.404Z,67.1
2022-09-06T15:04:53.406Z,67.3
2022-09-06T15:09:53.417Z,67.5
2022-09-06T15:19:53.403Z,67.1
2022-09-06T15:24:53.422Z,65.7
2022-09-06T15:34:53.423Z,65.7
2022-09-06T15:44:53.428Z,65.4
2022-09-06T15:54:53.415Z,65.3
2022-09-06T15:59:53.438Z,66.8
2022-09-06T16:19:53.473Z,65.7
2022-09-06T16:24:53.439Z,65.9
2022-09-06T16:34:53.444Z,66
2022-09-06T16:39:53.579Z,65.3
2022-09-06T16:49:53.448Z,65.8
2022-09-06T16:59:53.440Z,66.6
2022-09-06T17:04:53.451Z,66
2022-09-06T17:14:53.472Z,66
2022-09-06T17:19:53.471Z,66.3
2022-09-06T17:39:53.543Z,66.3
2022-09-06T17:49:53.459Z,66.3
2022-09-06T17:54:53.498Z,66.7
2022-09-06T17:59:53.490Z,67.6
2022-09-06T18:09:53.494Z,68.6
2022-09-06T18:19:53.511Z,67.2
2022-09-06T18:29:53.499Z,67.9
2022-09-06T18:54:53.493Z,67.3
2022-09-06T18:59:53.512Z,68.2
2022-09-06T19:09:53.502Z,68.2
2022-09-06T19:14:53.503Z,67.7
2022-09-06T19:24:53.503Z,68
2022-09-06T19:29:53.516Z,68.2
2022-09-06T19:39:53.623Z,68.7
2022-09-06T19:44:53.526Z,68.2
2022-09-06T19:54:53.509Z,68.2
2022-09-06T20:14:53.529Z,67.9
2022-09-06T20:24:53.520Z,68.8
2022-09-06T20:29:53.550Z,68.5
2022-09-06T20:39:53.632Z,68.3
2022-09-06T20:49:53.532Z,68.3
2022-09-06T20:54:53.541Z,67.1
2022-09-06T20:59:53.549Z,68
2022-09-06T21:09:53.536Z,68.1
2022-09-06T21:14:53.558Z,68.5
2022-09-06T21:29:53.550Z,68.3
2022-09-06T21:34:53.560Z,68
2022-09-06T21:44:53.570Z,68.9
2022-09-06T21:49:53.577Z,69
2022-09-06T21:59:53.570Z,69.2
2022-09-06T22:04:53.572Z,68.8
2022-09-06T22:14:53.570Z,69.1
2022-09-06T22:19:53.591Z,68.7
2022-09-06T22:29:53.574Z,68.6
2022-09-06T22:49:53.595Z,69.1
2022-09-06T22:59:53.583Z,68.8
2022-09-06T23:04:53.616Z,68.7
2022-09-06T23:14:53.593Z,69
2022-09-06T23:19:53.603Z,67.7
2022-09-06T23:29:53.594Z,68.6
2022-09-06T23:34:53.593Z,68.6
2022-09-06T23:39:53.718Z,68.3
2022-09-06T23:49:53.597Z,68
